Time;durP1;ratioP1;P1;durP2;ratioP2;P2;SDS_P1;SDS_P2;PMS_P1;PMS_P2;Temp;Humidity;BMP_temperature;BMP_pressure;BME280_temperature;BME280_humidity;BME280_pressure;Samples;Min_cycle;Max_cycle;Signal;HPM_P1;HPM_P2
2020/12/07 00:00:31;;;;;;;0.90;0.90;;;17.30;46.60;;;;;;5018177;28;20026;-45
2020/12/07 00:02:57;;;;;;;0.93;0.93;;;17.40;46.70;;;;;;5018285;28;20422;-49
2020/12/07 00:05:22;;;;;;;1.30;1.10;;;17.30;46.60;;;;;;5018069;28;20052;-45
2020/12/07 00:07:48;;;;;;;1.10;1.00;;;17.30;46.60;;;;;;5018316;28;20405;-47
2020/12/07 00:10:14;;;;;;;1.30;0.93;;;17.30;46.60;;;;;;5018310;28;20041;-46
2020/12/07 00:12:40;;;;;;;0.90;0.88;;;17.30;46.60;;;;;;5017908;28;20095;-52
2020/12/07 00:15:06;;;;;;;1.05;0.95;;;17.30;46.70;;;;;;5018002;28;20017;-45
2020/12/07 00:17:32;;;;;;;1.20;1.10;;;17.30;46.60;;;;;;5017826;28;20033;-47
2020/12/07 00:19:57;;;;;;;1.38;1.27;;;17.30;46.70;;;;;;5018089;28;20026;-49
2020/12/07 00:22:29;;;;;;;1.40;1.30;;;17.30;46.60;;;;;;5017935;28;20026;-50
2020/12/07 00:24:56;;;;;;;1.65;1.15;;;17.30;46.70;;;;;;5017746;28;20077;-47
2020/12/07 00:27:26;;;;;;;1.20;1.10;;;17.20;46.60;;;;;;5017009;28;20049;-51
2020/12/07 00:29:53;;;;;;;0.80;0.75;;;17.20;46.60;;;;;;5017954;28;20054;-47
2020/12/07 00:32:19;;;;;;;0.93;0.90;;;17.20;46.60;;;;;;5017485;28;20029;-48
2020/12/07 00:34:45;;;;;;;0.90;0.90;;;17.20;46.60;;;;;;5017737;28;20146;-49
2020/12/07 00:37:11;;;;;;;1.70;1.45;;;17.20;46.60;;;;;;5017499;28;20113;-49
2020/12/07 00:39:37;;;;;;;1.20;1.10;;;17.20;46.70;;;;;;5017494;28;20026;-48
2020/12/07 00:42:03;;;;;;;0.90;0.90;;;17.20;46.60;;;;;;5017383;28;20502;-47
2020/12/07 00:44:29;;;;;;;1.23;1.13;;;17.20;46.70;;;;;;5017209;28;20498;-49
2020/12/07 00:46:55;;;;;;;1.48;1.23;;;17.20;46.60;;;;;;5017486;28;20026;-45
2020/12/07 00:49:21;;;;;;;1.45;1.10;;;17.20;46.70;;;;;;5017322;28;20431;-46
2020/12/07 00:51:48;;;;;;;1.15;1.05;;;17.20;46.70;;;;;;5017352;28;20444;-47
2020/12/07 00:54:14;;;;;;;1.02;1.02;;;17.20;46.70;;;;;;5016907;28;20117;-45
2020/12/07 00:56:40;;;;;;;0.82;0.82;;;17.20;46.70;;;;;;5017140;28;20018;-48
2020/12/07 00:59:05;;;;;;;0.93;0.90;;;17.20;46.70;;;;;;5017023;28;20092;-47
2020/12/07 01:01:31;;;;;;;1.33;0.98;;;17.10;46.70;;;;;;5017013;28;20407;-49
2020/12/07 01:03:56;;;;;;;0.85;0.85;;;17.20;46.70;;;;;;5016980;28;20022;-45
2020/12/07 01:06:31;;;;;;;1.02;0.95;;;17.10;46.70;;;;;;5016921;28;20126;-45
2020/12/07 01:08:57;;;;;;;1.20;1.10;;;17.10;46.70;;;;;;5016464;28;20543;-45
2020/12/07 01:11:23;;;;;;;0.93;0.90;;;17.10;46.70;;;;;;5017153;28;20025;-46
2020/12/07 01:13:48;;;;;;;3.10;1.08;;;17.10;46.70;;;;;;5016538;28;20034;-45
2020/12/07 01:16:20;;;;;;;1.00;1.00;;;17.10;46.70;;;;;;5017069;28;20037;-47
2020/12/07 01:18:46;;;;;;;1.27;0.82;;;17.10;46.70;;;;;;5016697;28;20109;-50
2020/12/07 01:21:12;;;;;;;1.83;1.00;;;17.10;46.70;;;;;;5016637;28;20096;-46
2020/12/07 01:23:38;;;;;;;1.13;0.90;;;17.10;46.70;;;;;;5016500;28;20034;-47
2020/12/07 01:26:04;;;;;;;0.88;0.88;;;17.10;46.70;;;;;;5016270;28;20026;-47
2020/12/07 01:28:29;;;;;;;0.93;0.90;;;17.10;46.70;;;;;;5016812;28;20047;-48
2020/12/07 01:30:55;;;;;;;0.88;0.88;;;17.10;46.70;;;;;;5016446;28;20030;-45
2020/12/07 01:33:20;;;;;;;2.20;1.25;;;17.10;46.80;;;;;;5016626;28;20352;-48
2020/12/07 01:35:46;;;;;;;1.17;1.08;;;17.00;46.70;;;;;;5016383;28;20341;-48
2020/12/07 01:38:11;;;;;;;1.10;1.02;;;17.00;46.70;;;;;;5015828;28;20731;-48
2020/12/07 01:40:37;;;;;;;1.00;0.90;;;17.00;46.70;;;;;;5016379;28;20060;-47
2020/12/07 01:43:03;;;;;;;0.77;0.77;;;17.00;46.70;;;;;;5016338;28;20070;-45
2020/12/07 01:45:28;;;;;;;0.80;0.80;;;17.00;46.70;;;;;;5016109;28;20037;-46
2020/12/07 01:47:54;;;;;;;1.25;1.15;;;17.00;46.80;;;;;;5016137;28;20024;-46
2020/12/07 01:50:19;;;;;;;0.70;0.70;;;17.00;46.70;;;;;;5016094;28;20349;-47
2020/12/07 01:52:45;;;;;;;0.80;0.80;;;17.00;46.70;;;;;;5016085;28;20030;-49
2020/12/07 01:55:10;;;;;;;1.60;1.10;;;17.00;46.70;;;;;;5016204;28;20033;-47
2020/12/07 01:57:36;;;;;;;0.90;0.80;;;17.00;46.80;;;;;;5016059;28;20069;-45
2020/12/07 02:00:06;;;;;;;1.30;1.10;;;17.00;46.80;;;;;;5016170;28;20021;-47
2020/12/07 02:02:33;;;;;;;1.00;1.00;;;17.00;46.80;;;;;;5016120;28;20021;-47
2020/12/07 02:04:58;;;;;;;1.00;0.90;;;17.00;46.80;;;;;;5016145;28;20026;-49
2020/12/07 02:07:24;;;;;;;0.82;0.82;;;17.00;46.80;;;;;;5015620;28;20563;-49
2020/12/07 02:09:49;;;;;;;1.42;1.08;;;17.00;46.90;;;;;;5015719;28;20018;-46
2020/12/07 02:12:15;;;;;;;1.05;0.98;;;16.90;46.80;;;;;;5015652;28;20383;-47
2020/12/07 02:14:40;;;;;;;1.15;1.05;;;16.90;46.80;;;;;;5015849;28;20109;-44
2020/12/07 02:17:06;;;;;;;0.70;0.70;;;16.90;46.80;;;;;;5015835;28;20427;-48
2020/12/07 02:19:33;;;;;;;0.90;0.90;;;17.00;46.80;;;;;;5015317;28;20105;-48
2020/12/07 02:21:58;;;;;;;1.63;1.00;;;16.90;46.80;;;;;;5015703;28;20377;-46
2020/12/07 02:24:24;;;;;;;1.05;0.95;;;16.90;46.80;;;;;;5015374;28;20105;-44
2020/12/07 02:26:49;;;;;;;1.08;0.98;;;16.90;46.80;;;;;;5015961;28;20125;-46
2020/12/07 02:29:15;;;;;;;1.10;1.00;;;16.90;46.80;;;;;;5015694;28;20181;-45
2020/12/07 02:31:40;;;;;;;1.00;1.00;;;16.90;46.80;;;;;;5015397;28;20030;-48
2020/12/07 02:34:06;;;;;;;1.10;0.85;;;16.90;46.80;;;;;;5015647;28;20054;-45
2020/12/07 02:36:31;;;;;;;1.23;1.10;;;16.90;46.80;;;;;;5015273;28;20026;-46
2020/12/07 02:38:57;;;;;;;1.10;1.00;;;16.90;47.50;;;;;;5015563;28;20083;-47
2020/12/07 02:41:22;;;;;;;0.90;0.90;;;16.90;46.80;;;;;;4998345;28;20356;-46
2020/12/07 02:43:48;;;;;;;1.17;1.08;;;16.90;46.90;;;;;;5015238;28;20022;-45
2020/12/07 02:46:13;;;;;;;0.70;0.70;;;16.90;47.00;;;;;;5015126;28;20029;-48
2020/12/07 02:48:39;;;;;;;1.67;1.45;;;16.80;46.80;;;;;;5015387;28;20021;-46
2020/12/07 02:51:04;;;;;;;1.10;1.00;;;16.90;46.90;;;;;;5014551;28;20045;-46
2020/12/07 02:53:30;;;;;;;0.73;0.73;;;16.90;47.00;;;;;;5015414;28;20049;-46
2020/12/07 02:55:55;;;;;;;1.30;1.20;;;16.90;46.90;;;;;;5014817;28;20337;-47
2020/12/07 02:58:21;;;;;;;1.25;1.13;;;16.80;46.90;;;;;;5015040;28;20026;-49
2020/12/07 03:00:46;;;;;;;1.55;1.00;;;16.80;46.90;;;;;;5015382;28;20030;-46
2020/12/07 03:03:12;;;;;;;1.33;1.23;;;16.80;46.90;;;;;;5014743;28;20404;-49
2020/12/07 03:05:37;;;;;;;1.13;1.10;;;16.80;46.90;;;;;;5014914;28;20029;-45
2020/12/07 03:08:03;;;;;;;1.02;1.00;;;16.80;46.90;;;;;;5014715;28;20030;-45
2020/12/07 03:10:28;;;;;;;1.00;1.00;;;16.80;46.90;;;;;;5014650;28;20105;-45
2020/12/07 03:12:54;;;;;;;1.73;1.20;;;16.80;46.90;;;;;;5015207;28;20034;-46
2020/12/07 03:15:19;;;;;;;1.20;1.10;;;16.80;46.90;;;;;;5015353;28;20100;-45
2020/12/07 03:17:45;;;;;;;1.15;1.05;;;16.80;46.90;;;;;;5014863;28;20341;-46
2020/12/07 03:20:10;;;;;;;1.00;0.88;;;16.80;46.90;;;;;;5014497;28;20388;-48
2020/12/07 03:22:36;;;;;;;1.02;1.00;;;16.80;47.00;;;;;;5015136;28;20038;-48
2020/12/07 03:25:01;;;;;;;0.85;0.85;;;16.80;46.90;;;;;;5014884;28;20026;-47
2020/12/07 03:27:27;;;;;;;1.25;0.90;;;16.80;47.00;;;;;;5015136;28;20026;-47
2020/12/07 03:29:52;;;;;;;1.25;1.00;;;16.80;46.90;;;;;;5015106;28;20073;-45
2020/12/07 03:32:18;;;;;;;0.98;0.93;;;16.70;46.90;;;;;;5015219;28;20344;-46
2020/12/07 03:34:43;;;;;;;1.25;0.90;;;16.80;47.00;;;;;;5014939;28;20045;-47
2020/12/07 03:37:09;;;;;;;0.85;0.85;;;16.70;46.90;;;;;;5014683;28;20026;-45
2020/12/07 03:39:34;;;;;;;1.17;1.08;;;16.70;46.90;;;;;;5014496;28;20030;-49
2020/12/07 03:42:00;;;;;;;1.10;1.00;;;16.80;47.00;;;;;;5014397;28;20066;-49
2020/12/07 03:44:25;;;;;;;0.88;0.88;;;16.70;47.00;;;;;;5014922;28;20026;-48
2020/12/07 03:46:51;;;;;;;1.33;0.80;;;16.70;47.00;;;;;;5015056;28;20037;-45
2020/12/07 03:49:16;;;;;;;1.38;1.20;;;16.70;47.00;;;;;;5014455;28;20034;-45
2020/12/07 03:51:42;;;;;;;1.40;1.15;;;16.70;47.00;;;;;;5014730;28;20022;-44
2020/12/07 03:54:07;;;;;;;1.10;1.00;;;16.70;47.00;;;;;;5013880;28;20042;-47
2020/12/07 03:56:33;;;;;;;0.90;0.90;;;16.70;47.00;;;;;;5014567;28;20037;-47
2020/12/07 03:58:58;;;;;;;1.20;1.05;;;16.70;47.10;;;;;;5014823;28;20033;-45
2020/12/07 04:01:24;;;;;;;1.10;1.00;;;16.70;47.00;;;;;;5014643;28;20045;-48
2020/12/07 04:03:55;;;;;;;0.80;0.80;;;16.70;47.10;;;;;;5017361;28;20057;-45
2020/12/07 04:06:25;;;;;;;0.93;0.90;;;16.70;47.10;;;;;;5018324;28;20041;-46
2020/12/07 04:08:50;;;;;;;1.30;1.05;;;16.70;47.10;;;;;;5018130;28;20026;-45
2020/12/07 04:11:16;;;;;;;0.90;0.90;;;16.70;47.10;;;;;;5017897;28;20033;-44
2020/12/07 04:13:41;;;;;;;0.82;0.80;;;16.70;47.10;;;;;;5017072;28;20061;-48
2020/12/07 04:16:07;;;;;;;0.85;0.82;;;16.70;47.10;;;;;;5017563;28;20028;-46
2020/12/07 04:18:32;;;;;;;1.13;0.95;;;16.70;47.10;;;;;;5000622;28;20057;-49
2020/12/07 04:21:00;;;;;;;0.80;0.80;;;16.70;47.10;;;;;;5017934;28;20026;-44
2020/12/07 04:23:29;;;;;;;1.13;0.98;;;16.70;47.10;;;;;;5017954;28;20026;-45
2020/12/07 04:25:55;;;;;;;1.10;1.00;;;16.60;47.00;;;;;;5017700;28;20057;-47
2020/12/07 04:28:21;;;;;;;1.40;1.08;;;16.70;47.10;;;;;;5017703;28;20061;-46
2020/12/07 04:30:47;;;;;;;1.38;1.00;;;16.60;47.00;;;;;;5018039;28;20314;-50
2020/12/07 04:33:13;;;;;;;1.05;1.05;;;16.60;47.10;;;;;;5017284;28;20045;-46
2020/12/07 04:35:38;;;;;;;0.93;0.82;;;16.60;47.00;;;;;;5017469;28;20025;-45
2020/12/07 04:38:04;;;;;;;0.98;0.88;;;16.60;47.10;;;;;;5017482;28;20030;-45
2020/12/07 04:40:30;;;;;;;1.33;1.15;;;16.60;47.10;;;;;;5017303;28;20023;-45
2020/12/07 04:42:56;;;;;;;1.85;1.20;;;16.60;47.10;;;;;;5017693;28;20073;-46
2020/12/07 04:45:23;;;;;;;1.10;1.00;;;16.60;47.10;;;;;;5017310;28;20490;-47
2020/12/07 04:47:52;;;;;;;0.82;0.77;;;16.60;47.10;;;;;;5017016;28;20395;-45
2020/12/07 04:50:20;;;;;;;1.00;0.90;;;16.60;47.10;;;;;;5016974;28;20034;-46
2020/12/07 04:52:48;;;;;;;0.90;0.90;;;16.60;47.10;;;;;;5017609;28;20029;-46
2020/12/07 04:55:14;;;;;;;1.45;1.10;;;16.60;47.10;;;;;;5017117;28;20483;-46
2020/12/07 04:57:41;;;;;;;0.80;0.80;;;16.60;47.10;;;;;;5016339;28;20062;-45
2020/12/07 05:00:07;;;;;;;1.50;1.00;;;16.60;47.20;;;;;;5017283;28;20176;-44
2020/12/07 05:02:36;;;;;;;0.70;0.70;;;16.60;47.20;;;;;;5016857;28;20476;-45
2020/12/07 05:05:03;;;;;;;1.20;1.10;;;16.50;47.10;;;;;;5016959;28;20032;-46
2020/12/07 05:07:31;;;;;;;0.93;0.90;;;16.60;47.20;;;;;;5016887;28;20345;-47
2020/12/07 05:09:56;;;;;;;1.20;1.10;;;16.60;47.20;;;;;;5016859;28;20318;-47
2020/12/07 05:12:26;;;;;;;1.08;0.98;;;16.50;47.10;;;;;;5016858;28;20080;-46
2020/12/07 05:14:56;;;;;;;0.90;0.90;;;16.60;47.20;;;;;;5016267;28;20093;-46
2020/12/07 05:17:22;;;;;;;1.60;1.25;;;16.60;47.20;;;;;;5016909;28;20089;-44
2020/12/07 05:19:49;;;;;;;1.10;1.00;;;16.50;47.20;;;;;;5016705;28;20034;-49
2020/12/07 05:22:17;;;;;;;1.10;1.00;;;16.60;47.30;;;;;;5016609;28;20030;-46
2020/12/07 05:24:48;;;;;;;1.00;0.90;;;16.50;47.30;;;;;;5016575;28;20330;-47
2020/12/07 05:27:16;;;;;;;0.82;0.82;;;16.50;47.20;;;;;;5016376;28;20026;-48
2020/12/07 05:30:06;;;;;;;0.88;0.88;;;16.50;47.30;;;;;;5016746;28;20022;-44
2020/12/07 05:32:35;;;;;;;0.90;0.80;;;16.50;47.30;;;;;;5016408;28;20022;-45
2020/12/07 05:35:03;;;;;;;0.88;0.88;;;16.50;47.30;;;;;;5016293;28;20103;-45
2020/12/07 05:37:33;;;;;;;0.95;0.95;;;16.50;47.30;;;;;;5016194;28;20452;-47
2020/12/07 05:40:07;;;;;;;1.13;1.02;;;16.50;47.30;;;;;;5016094;28;20030;-47
2020/12/07 05:42:33;;;;;;;0.90;0.90;;;16.50;47.30;;;;;;5015947;28;20441;-45
2020/12/07 05:45:00;;;;;;;1.20;0.77;;;16.50;47.30;;;;;;5016069;28;20032;-45
2020/12/07 05:47:26;;;;;;;0.70;0.70;;;16.50;47.30;;;;;;5016047;28;20029;-46
2020/12/07 05:49:54;;;;;;;0.90;0.90;;;16.50;47.40;;;;;;5016336;28;20036;-44
2020/12/07 05:52:43;;;;;;;1.33;1.00;;;16.50;47.30;;;;;;4998842;28;20356;-44
2020/12/07 05:55:10;;;;;;;1.10;1.02;;;16.50;47.40;;;;;;5015419;28;20120;-46
2020/12/07 05:57:45;;;;;;;0.85;0.80;;;16.40;47.30;;;;;;5016465;28;20030;-45
2020/12/07 06:00:15;;;;;;;0.90;0.70;;;16.50;47.40;;;;;;5015996;28;20064;-47
2020/12/07 06:02:44;;;;;;;1.10;0.80;;;16.40;47.30;;;;;;5016000;28;20120;-45
2020/12/07 06:05:14;;;;;;;0.98;0.98;;;16.40;47.30;;;;;;5015364;28;20356;-46
2020/12/07 06:07:42;;;;;;;1.00;0.90;;;16.50;47.40;;;;;;5016210;28;20045;-47
2020/12/07 06:10:09;;;;;;;1.33;1.23;;;16.40;47.40;;;;;;5015705;28;20080;-45
2020/12/07 06:12:40;;;;;;;0.75;0.75;;;16.40;47.40;;;;;;5015618;28;20125;-47
2020/12/07 06:15:06;;;;;;;1.00;0.98;;;16.40;47.40;;;;;;5015809;28;20045;-45
2020/12/07 06:17:32;;;;;;;0.88;0.88;;;16.40;47.40;;;;;;5015571;28;20449;-47
2020/12/07 06:19:58;;;;;;;0.98;0.88;;;16.40;47.40;;;;;;5015653;28;20113;-46
2020/12/07 06:22:24;;;;;;;0.98;0.90;;;16.40;47.40;;;;;;5015495;28;20567;-45
2020/12/07 06:24:52;;;;;;;0.90;0.85;;;16.40;47.40;;;;;;5014949;28;20097;-47
2020/12/07 06:27:18;;;;;;;1.00;0.90;;;16.40;47.40;;;;;;5015833;28;20479;-45
2020/12/07 06:30:04;;;;;;;1.38;1.20;;;16.40;47.40;;;;;;5015195;28;20429;-47
2020/12/07 06:33:07;;;;;;;0.70;0.70;;;16.40;47.40;;;;;;5015180;28;20353;-46
2020/12/07 06:35:39;;;;;;;1.30;1.20;;;16.40;47.40;;;;;;4974153;28;20082;-47
2020/12/07 06:38:04;;;;;;;1.60;0.80;;;16.40;47.50;;;;;;5015696;28;20022;-45
2020/12/07 06:40:30;;;;;;;0.82;0.82;;;16.40;47.50;;;;;;5015439;28;20022;-48
2020/12/07 06:42:56;;;;;;;1.02;1.00;;;16.40;47.50;;;;;;5015267;28;20018;-45
2020/12/07 06:45:27;;;;;;;0.95;0.95;;;16.40;47.50;;;;;;5015534;28;20049;-45
2020/12/07 06:47:53;;;;;;;0.75;0.75;;;16.40;47.50;;;;;;5015250;28;20072;-46
2020/12/07 06:50:22;;;;;;;0.60;0.60;;;16.40;47.60;;;;;;5015090;28;20057;-46
2020/12/07 06:52:49;;;;;;;1.30;0.70;;;16.40;47.60;;;;;;5015082;28;20126;-48
2020/12/07 06:55:17;;;;;;;0.95;0.95;;;16.40;47.50;;;;;;5015375;28;20034;-46
2020/12/07 06:57:46;;;;;;;0.90;0.80;;;16.40;48.20;;;;;;5015288;28;20022;-45
2020/12/07 07:00:23;;;;;;;1.35;1.02;;;16.40;47.50;;;;;;5015059;28;20022;-45
2020/12/07 07:02:51;;;;;;;0.85;0.85;;;16.40;47.60;;;;;;5015281;28;20062;-46
2020/12/07 07:05:24;;;;;;;0.75;0.75;;;16.30;47.50;;;;;;5015325;28;20018;-44
2020/12/07 07:07:50;;;;;;;0.60;0.60;;;16.40;47.60;;;;;;5015029;28;20121;-49
2020/12/07 07:10:16;;;;;;;1.17;1.08;;;16.30;47.50;;;;;;5015070;28;20451;-45
2020/12/07 07:12:44;;;;;;;1.23;1.02;;;16.30;47.60;;;;;;5015201;28;20081;-44
2020/12/07 07:15:10;;;;;;;0.98;0.98;;;16.30;47.50;;;;;;5015394;28;20037;-47
2020/12/07 07:17:38;;;;;;;1.20;1.10;;;16.30;47.60;;;;;;5014881;28;20040;-44
2020/12/07 07:20:05;;;;;;;1.05;0.98;;;16.30;47.50;;;;;;5014820;28;20084;-48
2020/12/07 07:22:31;;;;;;;0.88;0.88;;;16.30;47.60;;;;;;5015055;28;20463;-48
2020/12/07 07:25:06;;;;;;;1.10;1.00;;;16.30;47.60;;;;;;5014873;28;20021;-46
2020/12/07 07:30:17;;;;;;;1.00;0.70;;;16.30;47.60;;;;;;5014599;28;20125;-45
2020/12/07 07:32:44;;;;;;;0.90;0.90;;;16.30;47.60;;;;;;5014330;28;20045;-50
2020/12/07 07:35:12;;;;;;;1.10;1.00;;;16.30;47.60;;;;;;5015489;28;20080;-46
2020/12/07 07:37:38;;;;;;;1.10;1.00;;;16.30;47.60;;;;;;5017359;28;20425;-45
2020/12/07 07:40:25;;;;;;;1.10;1.00;;;16.30;47.60;;;;;;5019129;28;20041;-48
2020/12/07 07:42:53;;;;;;;1.25;1.15;;;16.40;47.70;;;;;;5018005;28;20042;-45
2020/12/07 07:45:22;;;;;;;0.93;0.93;;;16.40;47.70;;;;;;5018535;28;20100;-47
2020/12/07 07:48:04;;;;;;;1.08;0.80;;;16.40;47.70;;;;;;5018211;28;20436;-46
2020/12/07 07:50:45;;;;;;;0.98;0.93;;;16.40;47.70;;;;;;5018306;28;20026;-46
2020/12/07 08:15:19;;;;;;;8.52;4.38;;;16.40;48.00;;;;;;5017523;28;20446;-46
2020/12/07 08:16:22;;;;;;;8.88;1.77;;;16.40;47.70;;;;;;5017484;28;20037;-46
2020/12/07 08:18:51;;;;;;;6.82;1.90;;;16.40;48.00;;;;;;5017498;28;20421;-45
2020/12/07 08:21:32;;;;;;;3.80;1.30;;;16.30;48.30;;;;;;5017888;28;20030;-45
2020/12/07 08:24:05;;;;;;;1.60;1.40;;;16.30;48.50;;;;;;5017423;28;20080;-44
2020/12/07 08:26:31;;;;;;;3.30;1.50;;;16.30;48.50;;;;;;5017493;28;20026;-46
2020/12/07 08:28:57;;;;;;;1.67;1.35;;;16.30;48.40;;;;;;5017845;28;20029;-46
2020/12/07 08:31:23;;;;;;;17.13;2.35;;;16.40;48.60;;;;;;5017622;28;20026;-46
2020/12/07 08:34:03;;;;;;;4.13;1.38;;;16.40;48.60;;;;;;5016977;28;20443;-45
2020/12/07 08:36:31;;;;;;;2.22;1.30;;;16.40;48.60;;;;;;5017393;28;20091;-46
2020/12/07 08:38:58;;;;;;;6.75;1.20;;;16.50;48.70;;;;;;5017066;28;20412;-47
2020/12/07 08:41:28;;;;;;;3.40;1.52;;;16.50;48.60;;;;;;5017102;28;20030;-47
2020/12/07 08:43:57;;;;;;;4.45;1.05;;;16.50;48.60;;;;;;5017463;28;20457;-46
2020/12/07 08:46:25;;;;;;;4.55;1.10;;;16.60;48.60;;;;;;5017088;28;20040;-47
2020/12/07 08:48:51;;;;;;;8.57;1.30;;;16.70;48.60;;;;;;5016514;28;20026;-46
2020/12/07 08:51:23;;;;;;;3.53;1.23;;;16.70;48.60;;;;;;5017207;28;20026;-47
2020/12/07 08:53:49;;;;;;;4.82;1.20;;;16.80;48.60;;;;;;5017038;28;20085;-47
2020/12/07 08:56:15;;;;;;;3.95;1.45;;;16.80;48.60;;;;;;5016374;28;20484;-48
2020/12/07 08:58:40;;;;;;;4.68;1.05;;;16.90;48.70;;;;;;5016573;28;20069;-46
2020/12/07 09:01:07;;;;;;;2.30;0.85;;;17.00;48.70;;;;;;5016938;28;20018;-47
2020/12/07 09:03:33;;;;;;;2.67;1.17;;;17.00;48.70;;;;;;5016850;28;20135;-47
2020/12/07 09:06:03;;;;;;;1.92;1.25;;;17.10;48.70;;;;;;5016957;28;20026;-45
2020/12/07 09:08:29;;;;;;;2.10;0.88;;;17.20;48.80;;;;;;5016997;28;20037;-46
2020/12/07 09:10:55;;;;;;;6.30;1.10;;;17.20;48.70;;;;;;5016083;28;20046;-49
2020/12/07 09:13:22;;;;;;;2.35;1.17;;;17.20;48.70;;;;;;5016771;28;20022;-47
2020/12/07 09:15:47;;;;;;;3.03;1.00;;;17.30;48.70;;;;;;5015546;28;20026;-48
2020/12/07 09:18:13;;;;;;;2.40;1.40;;;17.30;48.70;;;;;;5016859;28;20337;-49
2020/12/07 09:20:38;;;;;;;4.38;0.98;;;17.40;48.80;;;;;;5016559;28;20029;-46
2020/12/07 09:23:04;;;;;;;1.30;0.80;;;17.50;48.70;;;;;;5016592;28;20025;-46
2020/12/07 09:25:29;;;;;;;7.97;1.10;;;17.50;48.70;;;;;;5015638;28;20026;-48
2020/12/07 09:27:55;;;;;;;0.85;0.80;;;17.60;48.70;;;;;;5015442;28;20445;-46
2020/12/07 09:30:20;;;;;;;1.95;0.85;;;17.60;48.70;;;;;;5015819;28;20037;-48
2020/12/07 09:32:46;;;;;;;3.03;0.82;;;17.70;48.70;;;;;;5016356;28;20228;-46
2020/12/07 09:35:13;;;;;;;1.45;0.88;;;17.70;48.60;;;;;;5016917;28;20428;-48
2020/12/07 09:37:39;;;;;;;3.72;1.05;;;17.70;48.60;;;;;;5016563;28;20368;-45
2020/12/07 09:40:06;;;;;;;2.25;0.73;;;17.80;48.60;;;;;;5016430;28;20026;-45
2020/12/07 09:42:32;;;;;;;6.45;3.00;;;17.80;48.60;;;;;;5016094;28;20022;-45
2020/12/07 09:44:58;;;;;;;3.42;1.80;;;17.90;48.30;;;;;;5015799;28;20332;-45
2020/12/07 09:47:23;;;;;;;2.22;1.40;;;17.80;48.20;;;;;;5015935;28;20348;-46
2020/12/07 09:49:49;;;;;;;2.10;0.85;;;17.80;48.30;;;;;;5016284;28;20026;-46
2020/12/07 09:52:15;;;;;;;1.20;1.10;;;17.80;48.40;;;;;;5015785;28;20045;-46
2020/12/07 09:54:40;;;;;;;3.35;1.20;;;17.90;48.40;;;;;;5016004;28;20400;-46
2020/12/07 09:57:06;;;;;;;3.08;1.00;;;17.90;48.30;;;;;;5015059;28;20053;-47
2020/12/07 09:59:33;;;;;;;2.72;1.27;;;17.90;48.30;;;;;;5014981;28;20030;-45
2020/12/07 10:02:00;;;;;;;4.75;1.40;;;17.90;48.30;;;;;;5015326;28;20061;-48
2020/12/07 10:04:25;;;;;;;4.38;1.20;;;17.90;48.20;;;;;;5015070;28;20025;-45
2020/12/07 10:06:51;;;;;;;2.85;1.10;;;17.90;48.20;;;;;;5015716;28;20088;-44
2020/12/07 10:09:17;;;;;;;1.00;0.90;;;18.00;48.20;;;;;;5015580;28;20025;-47
2020/12/07 10:11:42;;;;;;;1.27;1.17;;;18.00;48.20;;;;;;5015231;28;20037;-45
2020/12/07 10:14:08;;;;;;;1.10;0.98;;;18.00;48.20;;;;;;5015302;28;20034;-48
2020/12/07 10:16:34;;;;;;;1.75;1.13;;;18.00;48.10;;;;;;5015390;28;20108;-46
2020/12/07 10:19:00;;;;;;;2.40;1.80;;;18.00;48.20;;;;;;5015363;28;20049;-50
2020/12/07 10:21:26;;;;;;;3.88;1.33;;;18.00;48.10;;;;;;5014437;28;20026;-46
2020/12/07 10:23:52;;;;;;;2.58;1.20;;;18.00;48.10;;;;;;5015165;28;20440;-45
2020/12/07 10:26:22;;;;;;;1.33;1.20;;;18.00;48.10;;;;;;5015122;28;20148;-47
2020/12/07 10:28:48;;;;;;;2.30;1.20;;;18.00;48.10;;;;;;5015332;28;20030;-48
2020/12/07 10:31:13;;;;;;;1.67;1.23;;;18.00;48.10;;;;;;5015371;28;20026;-45
2020/12/07 10:33:39;;;;;;;2.45;1.40;;;18.00;48.10;;;;;;5015240;28;20141;-49
2020/12/07 10:36:04;;;;;;;1.35;1.00;;;18.00;48.10;;;;;;5015319;28;20484;-45
2020/12/07 10:38:30;;;;;;;3.83;1.40;;;18.00;48.10;;;;;;5015228;28;20045;-45
2020/12/07 10:40:55;;;;;;;1.50;1.40;;;18.00;48.10;;;;;;5014838;28;20084;-47
2020/12/07 10:43:21;;;;;;;3.78;1.63;;;18.00;48.10;;;;;;5014912;28;20030;-46
2020/12/07 10:45:46;;;;;;;1.38;1.25;;;17.90;48.10;;;;;;5015120;28;20072;-47
2020/12/07 10:48:12;;;;;;;3.10;1.60;;;17.90;48.10;;;;;;5015018;28;20057;-46
2020/12/07 10:50:37;;;;;;;4.65;1.48;;;18.00;48.30;;;;;;5015209;28;20029;-48
2020/12/07 10:53:03;;;;;;;4.93;1.75;;;17.90;48.10;;;;;;5014793;28;20334;-47
2020/12/07 10:55:30;;;;;;;4.68;1.65;;;18.00;48.30;;;;;;5014968;28;20111;-46
2020/12/07 10:57:55;;;;;;;3.55;1.42;;;18.00;48.40;;;;;;5015086;28;20413;-51
2020/12/07 11:00:21;;;;;;;2.40;1.35;;;18.00;48.40;;;;;;5015049;28;20088;-46
2020/12/07 11:02:46;;;;;;;2.70;1.30;;;18.00;48.40;;;;;;5015142;28;20464;-46
2020/12/07 11:05:12;;;;;;;3.00;1.40;;;18.10;48.50;;;;;;5014895;28;20452;-47
2020/12/07 11:07:37;;;;;;;1.33;1.23;;;18.10;48.50;;;;;;5014569;28;20357;-49
2020/12/07 11:10:04;;;;;;;3.80;1.30;;;18.20;48.50;;;;;;5014027;28;20033;-45
2020/12/07 11:12:30;;;;;;;2.20;1.27;;;18.20;48.50;;;;;;5017026;28;20026;-47
2020/12/07 11:14:55;;;;;;;3.22;1.40;;;18.30;48.40;;;;;;5018574;28;20384;-50
2020/12/07 11:17:21;;;;;;;1.88;1.30;;;18.30;48.40;;;;;;5019062;28;20036;-52
2020/12/07 11:19:46;;;;;;;1.45;1.08;;;18.40;48.40;;;;;;5018973;28;20058;-47
2020/12/07 11:22:12;;;;;;;5.28;1.48;;;18.40;48.30;;;;;;5018307;28;20046;-46
2020/12/07 11:24:39;;;;;;;1.50;1.40;;;18.50;48.30;;;;;;5018166;28;20037;-49
2020/12/07 11:27:05;;;;;;;3.55;2.00;;;18.60;48.30;;;;;;5019028;28;20049;-50
2020/12/07 11:29:31;;;;;;;4.88;1.80;;;18.70;48.30;;;;;;5018574;28;20344;-46
2020/12/07 11:31:57;;;;;;;5.70;1.60;;;18.70;48.10;;;;;;5018302;28;20036;-47
2020/12/07 11:34:22;;;;;;;6.90;1.77;;;18.80;48.00;;;;;;5018338;28;20456;-48
2020/12/07 11:36:49;;;;;;;2.50;1.60;;;18.80;47.90;;;;;;5018794;28;20113;-46
2020/12/07 11:42:06;;;;;;;2.65;1.73;;;18.90;47.80;;;;;;5018405;28;20035;-46
2020/12/07 11:44:32;;;;;;;2.17;1.30;;;19.00;47.80;;;;;;5018004;28;20041;-46
2020/12/07 11:47:00;;;;;;;1.77;1.30;;;18.90;47.70;;;;;;5018533;28;20440;-47
2020/12/07 11:49:26;;;;;;;1.45;1.35;;;18.90;47.70;;;;;;5018304;28;20026;-48
2020/12/07 11:51:52;;;;;;;3.33;1.73;;;18.90;47.70;;;;;;5018755;28;20416;-48
2020/12/07 11:54:17;;;;;;;1.75;1.52;;;18.90;47.70;;;;;;5018300;28;20061;-48
2020/12/07 11:56:43;;;;;;;6.55;3.28;;;18.90;47.60;;;;;;5018390;28;20030;-47
2020/12/07 11:59:09;;;;;;;6.10;2.97;;;18.90;47.50;;;;;;5017905;28;20021;-46
2020/12/07 12:01:38;;;;;;;4.40;2.58;;;18.90;47.80;;;;;;5018223;28;20057;-48
2020/12/07 12:04:05;;;;;;;2.97;2.15;;;18.90;48.20;;;;;;5017362;28;20025;-50
2020/12/07 12:06:34;;;;;;;4.63;2.17;;;18.90;48.40;;;;;;5017623;28;20032;-47
2020/12/07 12:09:00;;;;;;;10.13;2.10;;;18.90;48.80;;;;;;5018253;28;20058;-48
2020/12/07 12:11:30;;;;;;;7.50;2.47;;;19.00;49.10;;;;;;5017941;28;20026;-45
2020/12/07 12:13:58;;;;;;;4.03;1.85;;;19.00;49.30;;;;;;5017438;28;20033;-46
2020/12/07 12:16:24;;;;;;;4.53;2.10;;;19.00;49.40;;;;;;5017328;28;20022;-46
2020/12/07 12:18:51;;;;;;;2.58;2.38;;;19.00;49.40;;;;;;5017331;28;20022;-45
2020/12/07 12:21:19;;;;;;;6.00;2.13;;;19.10;49.50;;;;;;5017204;28;20046;-48
2020/12/07 12:23:45;;;;;;;2.63;1.92;;;19.10;49.60;;;;;;5016483;28;20444;-49
2020/12/07 12:26:12;;;;;;;2.70;2.33;;;19.10;49.60;;;;;;5018024;28;20036;-47
2020/12/07 12:28:38;;;;;;;2.95;2.28;;;19.20;49.70;;;;;;5017718;28;20025;-48
2020/12/07 12:31:04;;;;;;;2.10;1.90;;;19.20;49.80;;;;;;5016563;28;20037;-49
2020/12/07 12:33:30;;;;;;;7.28;3.05;;;19.20;49.90;;;;;;5017115;28;20022;-46
2020/12/07 12:35:55;;;;;;;3.60;3.03;;;19.20;50.10;;;;;;5017696;28;20141;-49
2020/12/07 12:38:21;;;;;;;6.97;4.55;;;19.20;49.80;;;;;;5000175;28;20042;-50
2020/12/07 12:40:46;;;;;;;5.35;2.85;;;19.20;49.00;;;;;;5017112;28;20118;-47
2020/12/07 12:43:12;;;;;;;3.90;2.38;;;19.20;49.20;;;;;;5017332;28;20032;-46
2020/12/07 12:45:37;;;;;;;4.78;2.70;;;19.20;49.30;;;;;;5017442;28;20033;-45
2020/12/07 12:48:03;;;;;;;3.08;2.13;;;19.20;49.30;;;;;;5017402;28;20322;-47
2020/12/07 12:50:28;;;;;;;6.47;2.50;;;19.20;49.30;;;;;;5017257;28;20026;-48
2020/12/07 12:52:54;;;;;;;4.70;2.00;;;19.20;49.30;;;;;;5017223;28;20160;-49
2020/12/07 12:55:19;;;;;;;2.65;2.28;;;19.30;49.30;;;;;;5016759;28;20054;-46
2020/12/07 12:57:45;;;;;;;3.25;2.25;;;19.20;49.20;;;;;;5017122;28;20436;-45
2020/12/07 13:00:11;;;;;;;3.65;2.80;;;19.30;49.20;;;;;;5016897;28;20026;-47
2020/12/07 13:02:36;;;;;;;3.22;2.67;;;19.30;49.00;;;;;;5016677;28;20038;-47
2020/12/07 13:05:02;;;;;;;5.32;2.45;;;19.30;49.10;;;;;;5017064;28;20033;-46
2020/12/07 13:07:28;;;;;;;2.65;2.20;;;19.30;49.10;;;;;;5017086;28;20515;-48
2020/12/07 13:09:54;;;;;;;4.47;2.30;;;19.30;49.30;;;;;;5016488;28;20080;-49
2020/12/07 13:12:19;;;;;;;6.50;2.70;;;19.30;49.60;;;;;;5016931;28;20030;-46